Time;durP1;ratioP1;P1;durP2;ratioP2;P2;SDS_P1;SDS_P2;PMS_P1;PMS_P2;Temp;Humidity;BMP_temperature;BMP_pressure;BME280_temperature;BME280_humidity;BME280_pressure;Samples;Min_cycle;Max_cycle;Signal;HPM_P1;HPM_P2
2023/01/11 00:01:17;;;;;;;;;;;;;;;;;;4996981;28;20433;-75
2023/01/11 00:03:43;;;;;;;;;;;;;;;;;;4996686;28;19963;-75
2023/01/11 00:06:08;;;;;;;;;;;;;;;;;;4996828;28;19957;-75
2023/01/11 00:08:34;;;;;;;;;;;;;;;;;;5014137;28;20279;-76
2023/01/11 00:11:01;;;;;;;;;;;;;;;;;;5013934;28;19920;-75
2023/01/11 00:13:27;;;;;;;;;;;;;;;;;;4996470;28;19910;-75
2023/01/11 00:15:53;;;;;;;;;;;;;;;;;;4996186;28;19924;-75
2023/01/11 00:18:18;;;;;;;;;;;;;;;;;;5014189;28;19939;-74
2023/01/11 00:20:44;;;;;;;;;;;;;;;;;;4996778;28;19916;-76
2023/01/11 00:23:10;;;;;;;;;;;;;;;;;;5014265;28;20016;-77
2023/01/11 00:25:36;;;;;;;;;;;;;;;;;;5013876;28;19916;-75
2023/01/11 00:28:02;;;;;;;;;;;;;;;;;;4996755;28;19909;-75
2023/01/11 00:30:28;;;;;;;;;;;;;;;;;;5013984;28;19945;-76
2023/01/11 00:32:54;;;;;;;;;;;;;;;;;;5013557;28;19916;-75
2023/01/11 00:35:20;;;;;;;;;;;;;;;;;;5013464;28;20396;-75
2023/01/11 00:37:46;;;;;;;;;;;;;;;;;;4996102;28;20008;-75
2023/01/11 00:40:11;;;;;;;;;;;;;;;;;;4996286;28;19910;-74
2023/01/11 00:48:06;;;;;;;;;;;;;;;;;;5014046;28;20085;-75
2023/01/11 00:50:32;;;;;;;;;;;;;;;;;;5013483;28;20008;-76
2023/01/11 00:52:58;;;;;;;;;;;;;;;;;;5013292;28;20020;-76
2023/01/11 00:55:24;;;;;;;;;;;;;;;;;;5015175;28;19939;-75
2023/01/11 00:57:50;;;;;;;;;;;;;;;;;;4999941;28;20424;-76
2023/01/11 01:00:16;;;;;;;;;;;;;;;;;;5017501;28;19910;-74
2023/01/11 01:02:42;;;;;;;;;;;;;;;;;;5017582;28;19937;-75
2023/01/11 01:05:08;;;;;;;;;;;;;;;;;;5000031;28;19956;-76
2023/01/11 01:07:34;;;;;;;;;;;;;;;;;;5000068;28;19956;-75
2023/01/11 01:10:00;;;;;;;;;;;;;;;;;;5017795;28;19953;-75
2023/01/11 01:15:10;;;;;;;;;;;;;;;;;;5033302;23;19928;-79
2023/01/11 01:17:36;;;;;;;;;;;;;;;;;;4996977;28;19918;-78
2023/01/11 01:20:02;;;;;;;;;;;;;;;;;;4980076;28;20330;-79
2023/01/11 01:22:28;;;;;;;;;;;;;;;;;;4980084;28;19918;-80
2023/01/11 01:24:54;;;;;;;;;;;;;;;;;;4980170;28;19961;-79
2023/01/11 01:27:20;;;;;;;;;;;;;;;;;;4979887;28;19894;-79
2023/01/11 01:29:45;;;;;;;;;;;;;;;;;;4997066;28;19949;-79
2023/01/11 01:32:11;;;;;;;;;;;;;;;;;;4996663;28;19909;-78
2023/01/11 01:34:37;;;;;;;;;;;;;;;;;;4997115;28;19910;-78
2023/01/11 01:37:03;;;;;;;;;;;;;;;;;;4997185;28;20016;-78
2023/01/11 01:39:29;;;;;;;;;;;;;;;;;;4979511;28;19955;-78
2023/01/11 01:41:55;;;;;;;;;;;;;;;;;;4979924;28;20430;-80
2023/01/11 01:44:21;;;;;;;;;;;;;;;;;;4979714;28;19910;-79
2023/01/11 01:46:47;;;;;;;;;;;;;;;;;;4997122;28;19909;-78
2023/01/11 01:49:13;;;;;;;;;;;;;;;;;;4979514;28;19921;-79
2023/01/11 01:51:38;;;;;;;;;;;;;;;;;;4997066;28;19909;-79
2023/01/11 01:54:04;;;;;;;;;;;;;;;;;;4979964;28;19910;-78
2023/01/11 01:56:30;;;;;;;;;;;;;;;;;;4979673;28;19952;-78
2023/01/11 01:58:56;;;;;;;;;;;;;;;;;;4979336;28;19911;-78
2023/01/11 02:04:07;;;;;;;;;;;;;;;;;;4996896;28;19964;-79
2023/01/11 02:06:32;;;;;;;;;;;;;;;;;;4995925;28;19914;-78
2023/01/11 02:08:58;;;;;;;;;;;;;;;;;;4979274;28;20056;-79
2023/01/11 02:11:30;;;;;;;;;;;;;;;;;;4978597;28;19910;-79
2023/01/11 02:13:56;;;;;;;;;;;;;;;;;;4997069;28;20325;-79
2023/01/11 02:16:22;;;;;;;;;;;;;;;;;;4978881;28;19917;-79
2023/01/11 02:18:48;;;;;;;;;;;;;;;;;;4979003;28;19910;-78
2023/01/11 02:21:14;;;;;;;;;;;;;;;;;;4978926;28;19933;-78
2023/01/11 02:23:40;;;;;;;;;;;;;;;;;;4996594;28;19910;-78
2023/01/11 02:26:06;;;;;;;;;;;;;;;;;;4996353;28;19917;-78
2023/01/11 02:28:32;;;;;;;;;;;;;;;;;;4978934;28;19910;-78
2023/01/11 02:30:58;;;;;;;;;;;;;;;;;;4978959;28;20359;-80
2023/01/11 02:33:23;;;;;;;;;;;;;;;;;;4979020;28;19920;-78
2023/01/11 02:35:49;;;;;;;;;;;;;;;;;;4996229;28;19914;-79
2023/01/11 02:38:15;;;;;;;;;;;;;;;;;;4978288;28;20445;-78
2023/01/11 02:40:41;;;;;;;;;;;;;;;;;;4979278;28;19960;-79
2023/01/11 02:45:52;;;;;;;;;;;;;;;;;;4995958;28;20004;-78
2023/01/11 02:48:18;;;;;;;;;;;;;;;;;;4995885;28;19953;-80
2023/01/11 02:50:44;;;;;;;;;;;;;;;;;;4995245;28;19917;-78
2023/01/11 02:53:09;;;;;;;;;;;;;;;;;;4995912;28;20406;-78
2023/01/11 02:55:35;;;;;;;;;;;;;;;;;;4996001;28;20004;-79
2023/01/11 02:58:01;;;;;;;;;;;;;;;;;;4978461;28;19964;-79
2023/01/11 03:00:27;;;;;;;;;;;;;;;;;;4978549;28;19910;-79
2023/01/11 03:02:53;;;;;;;;;;;;;;;;;;4978120;28;19918;-78
2023/01/11 03:05:19;;;;;;;;;;;;;;;;;;4995214;28;19999;-78
2023/01/11 03:07:45;;;;;;;;;;;;;;;;;;4977900;28;20004;-79
2023/01/11 03:10:11;;;;;;;;;;;;;;;;;;4978057;28;19910;-78
2023/01/11 03:12:53;;;;;;;;;;;;;;;;;;4977881;28;19909;-78
2023/01/11 03:15:19;;;;;;;;;;;;;;;;;;4995006;28;20004;-78
2023/01/11 03:17:45;;;;;;;;;;;;;;;;;;4977116;28;20008;-78
2023/01/11 03:20:11;;;;;;;;;;;;;;;;;;4977230;28;19910;-79
2023/01/11 03:22:37;;;;;;;;;;;;;;;;;;4995175;28;19913;-78
2023/01/11 03:25:03;;;;;;;;;;;;;;;;;;4977630;28;20401;-79
2023/01/11 03:27:28;;;;;;;;;;;;;;;;;;4994355;28;19946;-78
2023/01/11 03:29:54;;;;;;;;;;;;;;;;;;4995124;28;19910;-79
2023/01/11 03:32:20;;;;;;;;;;;;;;;;;;4995098;28;19956;-78
2023/01/11 03:34:46;;;;;;;;;;;;;;;;;;4995112;28;19963;-79
2023/01/11 03:37:12;;;;;;;;;;;;;;;;;;4977620;28;19909;-78
2023/01/11 03:39:38;;;;;;;;;;;;;;;;;;4977192;28;19917;-78
2023/01/11 03:42:04;;;;;;;;;;;;;;;;;;4977457;28;20374;-79
2023/01/11 03:44:30;;;;;;;;;;;;;;;;;;4994649;28;20000;-79
2023/01/11 03:46:56;;;;;;;;;;;;;;;;;;4994542;28;20294;-78
2023/01/11 03:49:22;;;;;;;;;;;;;;;;;;4994758;28;19916;-79
2023/01/11 03:51:48;;;;;;;;;;;;;;;;;;4994602;28;20367;-78
2023/01/11 03:54:14;;;;;;;;;;;;;;;;;;4994634;28;19965;-79
2023/01/11 03:56:39;;;;;;;;;;;;;;;;;;4977249;28;19936;-78
2023/01/11 03:59:05;;;;;;;;;;;;;;;;;;4977019;28;19937;-80
2023/01/11 04:01:31;;;;;;;;;;;;;;;;;;4976519;28;19972;-78
2023/01/11 04:03:57;;;;;;;;;;;;;;;;;;4994867;28;19910;-79
2023/01/11 04:06:24;;;;;;;;;;;;;;;;;;4994273;28;19925;-80
2023/01/11 04:08:50;;;;;;;;;;;;;;;;;;4976886;28;19960;-78
2023/01/11 04:11:16;;;;;;;;;;;;;;;;;;4994397;28;19910;-78
2023/01/11 04:13:42;;;;;;;;;;;;;;;;;;4977098;28;20385;-79
2023/01/11 04:16:08;;;;;;;;;;;;;;;;;;4993928;28;20328;-79
2023/01/11 04:18:33;;;;;;;;;;;;;;;;;;4976903;28;20016;-79
2023/01/11 04:20:59;;;;;;;;;;;;;;;;;;4994291;28;19916;-79
2023/01/11 04:23:25;;;;;;;;;;;;;;;;;;4994159;28;19913;-78
2023/01/11 04:25:52;;;;;;;;;;;;;;;;;;4976614;28;19957;-78
2023/01/11 04:28:18;;;;;;;;;;;;;;;;;;4993975;28;19910;-78
2023/01/11 04:30:44;;;;;;;;;;;;;;;;;;4993943;28;20309;-79
2023/01/11 04:33:12;;;;;;;;;;;;;;;;;;4976637;28;19916;-78
2023/01/11 04:35:37;;;;;;;;;;;;;;;;;;4975921;28;19917;-79
2023/01/11 04:38:03;;;;;;;;;;;;;;;;;;4976476;28;19914;-79
2023/01/11 04:40:29;;;;;;;;;;;;;;;;;;4976311;28;19909;-78
2023/01/11 04:42:55;;;;;;;;;;;;;;;;;;4976430;28;19921;-78
2023/01/11 04:45:21;;;;;;;;;;;;;;;;;;4976443;28;19910;-78
2023/01/11 04:47:47;;;;;;;;;;;;;;;;;;4976465;28;19914;-79
2023/01/11 04:50:13;;;;;;;;;;;;;;;;;;4994063;28;20521;-78
2023/01/11 04:52:40;;;;;;;;;;;;;;;;;;4976767;28;19910;-79
2023/01/11 04:55:06;;;;;;;;;;;;;;;;;;4993595;28;20422;-79
2023/01/11 04:57:32;;;;;;;;;;;;;;;;;;4976576;28;19965;-78
2023/01/11 04:59:58;;;;;;;;;;;;;;;;;;4976363;28;19916;-78
2023/01/11 05:02:24;;;;;;;;;;;;;;;;;;4976683;28;20379;-79
2023/01/11 05:04:49;;;;;;;;;;;;;;;;;;4993872;28;20001;-79
2023/01/11 05:07:15;;;;;;;;;;;;;;;;;;4993826;28;19910;-79
2023/01/11 05:09:42;;;;;;;;;;;;;;;;;;4975777;28;20425;-79
2023/01/11 05:12:08;;;;;;;;;;;;;;;;;;4976793;28;19909;-79
2023/01/11 05:14:33;;;;;;;;;;;;;;;;;;4993518;28;19913;-78
2023/01/11 05:16:59;;;;;;;;;;;;;;;;;;4976093;28;19918;-79
2023/01/11 05:19:25;;;;;;;;;;;;;;;;;;4993502;28;19963;-79
2023/01/11 05:21:51;;;;;;;;;;;;;;;;;;4976244;28;20383;-79
2023/01/11 05:24:17;;;;;;;;;;;;;;;;;;4976240;28;19910;-79
2023/01/11 05:26:43;;;;;;;;;;;;;;;;;;4993196;28;19914;-79
2023/01/11 05:29:09;;;;;;;;;;;;;;;;;;4976321;28;19917;-79
2023/01/11 05:31:35;;;;;;;;;;;;;;;;;;4976304;28;20008;-80
2023/01/11 05:34:01;;;;;;;;;;;;;;;;;;4976404;28;19957;-79
2023/01/11 05:36:27;;;;;;;;;;;;;;;;;;4976025;28;19992;-78
2023/01/11 05:38:53;;;;;;;;;;;;;;;;;;4975556;28;19909;-79
2023/01/11 05:41:19;;;;;;;;;;;;;;;;;;4976366;28;20359;-79
2023/01/11 05:46:29;;;;;;;;;;;;;;;;;;4996981;28;19933;-78
2023/01/11 05:48:55;;;;;;;;;;;;;;;;;;4978808;28;20358;-78
2023/01/11 05:51:21;;;;;;;;;;;;;;;;;;4979684;28;19960;-79
2023/01/11 05:53:47;;;;;;;;;;;;;;;;;;4979738;28;19917;-79
2023/01/11 05:56:13;;;;;;;;;;;;;;;;;;4979527;28;19971;-79
2023/01/11 05:58:39;;;;;;;;;;;;;;;;;;4996745;28;19909;-78
2023/01/11 06:01:05;;;;;;;;;;;;;;;;;;4997068;28;19917;-78
2023/01/11 06:03:31;;;;;;;;;;;;;;;;;;4996883;28;19984;-79
2023/01/11 06:05:56;;;;;;;;;;;;;;;;;;4979203;28;19916;-78
2023/01/11 06:08:22;;;;;;;;;;;;;;;;;;4996824;28;19910;-79
2023/01/11 06:10:48;;;;;;;;;;;;;;;;;;4979478;28;19917;-79
2023/01/11 06:13:26;;;;;;;;;;;;;;;;;;4979200;28;19910;-78
2023/01/11 06:15:52;;;;;;;;;;;;;;;;;;4978909;28;19979;-79
2023/01/11 06:18:18;;;;;;;;;;;;;;;;;;4996587;28;20359;-78
2023/01/11 06:20:44;;;;;;;;;;;;;;;;;;4996516;28;20005;-79
2023/01/11 06:23:10;;;;;;;;;;;;;;;;;;4979424;28;19914;-78
2023/01/11 06:25:36;;;;;;;;;;;;;;;;;;4978462;28;19910;-80
2023/01/11 06:28:02;;;;;;;;;;;;;;;;;;4979226;28;20278;-80
2023/01/11 06:35:39;;;;;;;;;;;;;;;;;;5466830;23;19925;-81
2023/01/11 06:38:05;;;;;;;;;;;;;;;;;;5022070;28;19914;-82
2023/01/11 06:43:07;;;;;;;;;;;;;;;;;;5332300;23;19929;-81
2023/01/11 06:45:33;;;;;;;;;;;;;;;;;;4998832;28;19955;-81
2023/01/11 06:47:59;;;;;;;;;;;;;;;;;;4998918;28;19909;-81
2023/01/11 06:50:25;;;;;;;;;;;;;;;;;;4998924;28;19920;-80
2023/01/11 06:52:51;;;;;;;;;;;;;;;;;;5016085;28;20282;-81
2023/01/11 06:55:16;;;;;;;;;;;;;;;;;;5000279;28;19917;-81
2023/01/11 06:57:42;;;;;;;;;;;;;;;;;;4999811;28;19909;-81
2023/01/11 07:00:08;;;;;;;;;;;;;;;;;;4999692;28;19901;-81
2023/01/11 07:02:34;;;;;;;;;;;;;;;;;;4999144;28;19961;-81
2023/01/11 07:05:00;;;;;;;;;;;;;;;;;;5015451;28;20381;-81
2023/01/11 07:07:26;;;;;;;;;;;;;;;;;;4999039;28;20008;-81
2023/01/11 07:09:52;;;;;;;;;;;;;;;;;;4999370;28;19992;-81
2023/01/11 07:12:18;;;;;;;;;;;;;;;;;;4998678;28;19909;-81
2023/01/11 07:14:44;;;;;;;;;;;;;;;;;;4998265;28;19916;-81
2023/01/11 07:17:10;;;;;;;;;;;;;;;;;;5009851;23;19926;-80
2023/01/11 07:19:35;;;;;;;;;;;;;;;;;;4975286;28;20387;-79
2023/01/11 07:22:01;;;;;;;;;;;;;;;;;;4975267;28;19921;-79
2023/01/11 07:24:27;;;;;;;;;;;;;;;;;;4975578;28;19910;-79
2023/01/11 07:26:55;;;;;;;;;;;;;;;;;;4974303;28;19911;-79
2023/01/11 07:29:20;;;;;;;;;;;;;;;;;;4975806;28;19914;-80
2023/01/11 07:31:46;;;;;;;;;;;;;;;;;;4975690;28;19910;-79
2023/01/11 07:34:12;;;;;;;;;;;;;;;;;;4975676;28;19910;-80
2023/01/11 07:36:38;;;;;;;;;;;;;;;;;;4975697;28;19921;-80
2023/01/11 07:39:04;;;;;;;;;;;;;;;;;;4974085;28;19914;-79
2023/01/11 07:44:15;;;;;;;;;;;;;;;;;;4977027;28;19917;-79
2023/01/11 07:46:41;;;;;;;;;;;;;;;;;;4975161;28;19910;-80
2023/01/11 07:49:07;;;;;;;;;;;;;;;;;;4974051;28;19968;-80
2023/01/11 07:51:32;;;;;;;;;;;;;;;;;;4974045;28;20278;-80
2023/01/11 07:54:01;;;;;;;;;;;;;;;;;;4973869;28;19921;-80
2023/01/11 07:56:27;;;;;;;;;;;;;;;;;;4973858;28;19910;-79
2023/01/11 07:58:53;;;;;;;;;;;;;;;;;;4974038;28;19976;-80
2023/01/11 08:01:19;;;;;;;;;;;;;;;;;;4975401;28;19914;-80
2023/01/11 08:03:44;;;;;;;;;;;;;;;;;;4973766;28;19914;-80
2023/01/11 08:06:10;;;;;;;;;;;;;;;;;;4972947;28;19910;-80
2023/01/11 08:08:36;;;;;;;;;;;;;;;;;;4973812;28;19911;-80
2023/01/11 08:16:32;;;;;;;;;;;;;;;;;;4975115;28;19924;-80
2023/01/11 08:18:58;;;;;;;;;;;;;;;;;;4975071;28;20009;-80
2023/01/11 08:21:24;;;;;;;;;;;;;;;;;;4973508;28;19929;-80
2023/01/11 08:23:50;;;;;;;;;;;;;;;;;;4974932;28;20577;-79
2023/01/11 08:26:15;;;;;;;;;;;;;;;;;;4973555;28;19910;-80
2023/01/11 08:28:41;;;;;;;;;;;;;;;;;;4975615;28;20004;-80
2023/01/11 08:31:07;;;;;;;;;;;;;;;;;;4975770;28;19914;-80
2023/01/11 08:33:33;;;;;;;;;;;;;;;;;;4975798;28;19910;-80
2023/01/11 08:35:59;;;;;;;;;;;;;;;;;;4973547;28;19910;-79
2023/01/11 08:38:25;;;;;;;;;;;;;;;;;;4974738;28;19910;-80
2023/01/11 08:40:51;;;;;;;;;;;;;;;;;;4975193;28;19917;-80
2023/01/11 08:43:17;;;;;;;;;;;;;;;;;;4974383;28;19914;-79
2023/01/11 08:45:43;;;;;;;;;;;;;;;;;;4974316;28;19910;-79
2023/01/11 08:48:10;;;;;;;;;;;;;;;;;;4973843;28;19961;-79
2023/01/11 08:50:36;;;;;;;;;;;;;;;;;;4974895;28;19910;-81
2023/01/11 08:53:02;;;;;;;;;;;;;;;;;;4974711;28;19917;-80
2023/01/11 08:55:29;;;;;;;;;;;;;;;;;;4973662;28;19911;-79
2023/01/11 08:57:55;;;;;;;;;;;;;;;;;;4974732;28;19911;-79
2023/01/11 09:00:21;;;;;;;;;;;;;;;;;;4977044;28;19910;-80
2023/01/11 09:02:47;;;;;;;;;;;;;;;;;;4982090;28;19921;-80
2023/01/11 09:05:13;;;;;;;;;;;;;;;;;;4982854;28;19910;-80
2023/01/11 09:07:39;;;;;;;;;;;;;;;;;;4986443;28;20387;-80
2023/01/11 09:10:05;;;;;;;;;;;;;;;;;;4983526;28;19914;-80
2023/01/11 09:12:31;;;;;;;;;;;;;;;;;;4981404;28;19917;-80
2023/01/11 09:14:57;;;;;;;;;;;;;;;;;;4978941;28;20295;-80
2023/01/11 09:17:23;;;;;;;;;;;;;;;;;;4978966;28;19918;-80
2023/01/11 09:19:49;;;;;;;;;;;;;;;;;;4981709;28;19922;-80
2023/01/11 09:22:15;;;;;;;;;;;;;;;;;;4982624;28;20330;-80
2023/01/11 09:24:41;;;;;;;;;;;;;;;;;;4984616;28;19933;-80
2023/01/11 09:27:06;;;;;;;;;;;;;;;;;;4993082;28;19910;-80
2023/01/11 09:29:32;;;;;;;;;;;;;;;;;;4989220;28;19911;-80
2023/01/11 09:31:58;;;;;;;;;;;;;;;;;;5001732;28;19913;-79
2023/01/11 09:34:26;;;;;;;;;;;;;;;;;;5000361;28;19902;-80
2023/01/11 09:36:54;;;;;;;;;;;;;;;;;;5002095;28;19944;-79
2023/01/11 09:39:24;;;;;;;;;;;;;;;;;;5000341;28;19902;-80
2023/01/11 09:41:50;;;;;;;;;;;;;;;;;;5000911;28;19944;-80
2023/01/11 09:44:18;;;;;;;;;;;;;;;;;;4998450;28;19899;-80
2023/01/11 09:46:45;;;;;;;;;;;;;;;;;;4993174;28;19913;-80
2023/01/11 09:49:11;;;;;;;;;;;;;;;;;;4985475;28;19910;-80
2023/01/11 09:51:38;;;;;;;;;;;;;;;;;;4970975;28;19914;-80
2023/01/11 09:54:08;;;;;;;;;;;;;;;;;;4971625;28;19937;-80
2023/01/11 09:56:35;;;;;;;;;;;;;;;;;;4976044;28;19937;-80
2023/01/11 09:59:01;;;;;;;;;;;;;;;;;;4975621;28;20011;-79
2023/01/11 10:01:30;;;;;;;;;;;;;;;;;;4970218;28;19910;-80
2023/01/11 10:03:58;;;;;;;;;;;;;;;;;;4976890;28;19929;-80
2023/01/11 10:06:25;;;;;;;;;;;;;;;;;;4976387;28;19930;-80
2023/01/11 10:08:52;;;;;;;;;;;;;;;;;;4976288;28;19917;-79
2023/01/11 10:11:19;;;;;;;;;;;;;;;;;;4979940;28;19915;-79
2023/01/11 10:13:46;;;;;;;;;;;;;;;;;;4981905;28;19906;-79
2023/01/11 10:16:17;;;;;;;;;;;;;;;;;;4982199;28;19958;-79
2023/01/11 10:18:43;;;;;;;;;;;;;;;;;;4995279;28;19902;-79
2023/01/11 10:21:10;;;;;;;;;;;;;;;;;;5000915;28;19955;-80
2023/01/11 10:23:40;;;;;;;;;;;;;;;;;;5000134;28;19921;-79
2023/01/11 10:26:14;;;;;;;;;;;;;;;;;;5000469;28;20410;-80
2023/01/11 10:28:48;;;;;;;;;;;;;;;;;;4996769;28;19925;-80
2023/01/11 10:31:47;;;;;;;;;;;;;;;;;;4999705;28;19902;-79
2023/01/11 10:34:40;;;;;;;;;;;;;;;;;;5001165;28;19914;-79
2023/01/11 10:42:16;;;;;;;;;;;;;;;;;;5001212;28;19913;-80
2023/01/11 10:44:42;;;;;;;;;;;;;;;;;;5000574;28;19903;-79
2023/01/11 10:47:08;;;;;;;;;;;;;;;;;;5058734;23;19996;-79
2023/01/11 10:49:34;;;;;;;;;;;;;;;;;;5021909;28;19914;-80
2023/01/11 10:52:00;;;;;;;;;;;;;;;;;;5023458;28;19905;-79
2023/01/11 10:54:27;;;;;;;;;;;;;;;;;;5023369;28;19910;-78
2023/01/11 10:56:53;;;;;;;;;;;;;;;;;;5023412;28;19909;-79
2023/01/11 10:59:20;;;;;;;;;;;;;;;;;;5023260;28;19969;-79
2023/01/11 11:01:49;;;;;;;;;;;;;;;;;;5023180;28;19975;-79
2023/01/11 11:04:14;;;;;;;;;;;;;;;;;;5036345;28;19897;-79
2023/01/11 11:06:40;;;;;;;;;;;;;;;;;;5017295;28;19967;-79
2023/01/11 11:09:06;;;;;;;;;;;;;;;;;;5036922;28;19933;-79
2023/01/11 11:11:32;;;;;;;;;;;;;;;;;;5022964;28;19897;-80
2023/01/11 11:13:58;;;;;;;;;;;;;;;;;;5022995;28;19904;-79
2023/01/11 11:16:24;;;;;;;;;;;;;;;;;;5020248;28;19939;-79
2023/01/11 11:18:50;;;;;;;;;;;;;;;;;;5039142;28;19937;-79
2023/01/11 11:21:16;;;;;;;;;;;;;;;;;;5039888;28;19901;-79
2023/01/11 11:23:42;;;;;;;;;;;;;;;;;;5039639;28;19917;-79
2023/01/11 11:26:07;;;;;;;;;;;;;;;;;;5022434;28;19945;-79
2023/01/11 11:28:33;;;;;;;;;;;;;;;;;;5022737;28;19893;-79
2023/01/11 11:30:59;;;;;;;;;;;;;;;;;;5022638;28;19898;-78
2023/01/11 11:33:25;;;;;;;;;;;;;;;;;;5039554;28;19921;-79
2023/01/11 11:35:51;;;;;;;;;;;;;;;;;;5021702;28;19980;-79
2023/01/11 11:38:17;;;;;;;;;;;;;;;;;;5037507;28;20002;-79
2023/01/11 11:40:43;;;;;;;;;;;;;;;;;;5038697;28;19898;-79
2023/01/11 11:43:09;;;;;;;;;;;;;;;;;;5021778;28;19909;-79
2023/01/11 11:45:35;;;;;;;;;;;;;;;;;;5022266;28;19909;-79
2023/01/11 11:48:01;;;;;;;;;;;;;;;;;;5022202;28;19910;-79
2023/01/11 11:50:27;;;;;;;;;;;;;;;;;;5022341;28;19921;-79
2023/01/11 11:52:53;;;;;;;;;;;;;;;;;;5009553;28;19920;-78
2023/01/11 11:55:18;;;;;;;;;;;;;;;;;;5000370;28;19916;-80
2023/01/11 11:57:44;;;;;;;;;;;;;;;;;;5004188;28;19910;-80
2023/01/11 12:00:10;;;;;;;;;;;;;;;;;;5004013;28;20421;-80
2023/01/11 12:02:36;;;;;;;;;;;;;;;;;;5000489;28;19921;-80
2023/01/11 12:05:02;;;;;;;;;;;;;;;;;;5002182;28;19932;-80
2023/01/11 12:07:28;;;;;;;;;;;;;;;;;;5020448;28;19912;-80
2023/01/11 12:09:54;;;;;;;;;;;;;;;;;;5020392;28;19909;-80
2023/01/11 12:12:26;;;;;;;;;;;;;;;;;;5022008;28;20274;-80
2023/01/11 12:14:51;;;;;;;;;;;;;;;;;;4982743;28;19914;-79
2023/01/11 12:17:17;;;;;;;;;;;;;;;;;;4997985;28;19918;-79
2023/01/11 12:19:46;;;;;;;;;;;;;;;;;;4976817;28;20271;-79
2023/01/11 12:22:12;;;;;;;;;;;;;;;;;;4976224;28;19918;-79
2023/01/11 12:24:38;;;;;;;;;;;;;;;;;;4976830;28;19916;-80
2023/01/11 12:27:04;;;;;;;;;;;;;;;;;;4977099;28;20366;-79
2023/01/11 12:29:30;;;;;;;;;;;;;;;;;;4977187;28;19910;-79
2023/01/11 12:31:56;;;;;;;;;;;;;;;;;;4989074;28;19989;-79
2023/01/11 12:34:22;;;;;;;;;;;;;;;;;;4994232;28;19998;-78
2023/01/11 12:36:48;;;;;;;;;;;;;;;;;;4992228;28;19933;-78
2023/01/11 12:39:14;;;;;;;;;;;;;;;;;;4995079;28;19910;-79
2023/01/11 12:41:42;;;;;;;;;;;;;;;;;;4995815;28;19957;-79
2023/01/11 12:44:08;;;;;;;;;;;;;;;;;;4992944;28;19910;-79
2023/01/11 12:46:34;;;;;;;;;;;;;;;;;;4980166;28;20383;-79
2023/01/11 12:49:00;;;;;;;;;;;;;;;;;;4979130;28;19921;-78
2023/01/11 12:51:26;;;;;;;;;;;;;;;;;;4995687;28;19921;-79
2023/01/11 12:53:52;;;;;;;;;;;;;;;;;;4978604;28;19961;-80
2023/01/11 12:56:18;;;;;;;;;;;;;;;;;;4995508;28;20367;-79
2023/01/11 12:58:44;;;;;;;;;;;;;;;;;;4977201;28;19996;-80
2023/01/11 13:01:11;;;;;;;;;;;;;;;;;;4977003;28;19916;-80
2023/01/11 13:03:37;;;;;;;;;;;;;;;;;;4981299;28;19918;-79
2023/01/11 13:06:03;;;;;;;;;;;;;;;;;;4982001;28;19910;-79
2023/01/11 13:08:29;;;;;;;;;;;;;;;;;;4986747;28;19906;-80
2023/01/11 13:10:55;;;;;;;;;;;;;;;;;;4985360;28;19910;-79
2023/01/11 13:13:20;;;;;;;;;;;;;;;;;;4982817;28;19929;-80
2023/01/11 13:15:47;;;;;;;;;;;;;;;;;;4997361;23;19893;-76
2023/01/11 13:18:13;;;;;;;;;;;;;;;;;;4994853;28;19920;-75
2023/01/11 13:20:39;;;;;;;;;;;;;;;;;;5013125;28;19909;-75
2023/01/11 13:23:05;;;;;;;;;;;;;;;;;;5012912;28;20343;-76
2023/01/11 13:25:31;;;;;;;;;;;;;;;;;;4995233;28;19909;-76
2023/01/11 13:27:57;;;;;;;;;;;;;;;;;;5012908;28;19909;-76
2023/01/11 13:30:23;;;;;;;;;;;;;;;;;;5013106;28;20285;-75
2023/01/11 13:32:49;;;;;;;;;;;;;;;;;;5013655;28;19916;-76
2023/01/11 13:35:15;;;;;;;;;;;;;;;;;;5012955;28;19909;-76
2023/01/11 13:37:41;;;;;;;;;;;;;;;;;;5013201;28;20389;-75
2023/01/11 13:40:07;;;;;;;;;;;;;;;;;;5013597;28;19909;-75
2023/01/11 13:42:33;;;;;;;;;;;;;;;;;;5012584;28;20032;-76
2023/01/11 13:44:59;;;;;;;;;;;;;;;;;;5012547;28;20329;-76
2023/01/11 13:47:25;;;;;;;;;;;;;;;;;;5013136;28;19916;-77
2023/01/11 13:49:50;;;;;;;;;;;;;;;;;;4996710;28;19909;-78
2023/01/11 13:52:16;;;;;;;;;;;;;;;;;;4992556;28;19920;-76
2023/01/11 13:54:42;;;;;;;;;;;;;;;;;;4990816;28;19913;-77
2023/01/11 13:57:08;;;;;;;;;;;;;;;;;;5016541;28;20004;-78
2023/01/11 13:59:34;;;;;;;;;;;;;;;;;;5016734;28;20337;-78
2023/01/11 14:02:00;;;;;;;;;;;;;;;;;;5016523;28;19920;-78
2023/01/11 14:04:26;;;;;;;;;;;;;;;;;;5019473;28;19917;-78
2023/01/11 14:06:53;;;;;;;;;;;;;;;;;;5019151;28;19916;-78
2023/01/11 14:09:19;;;;;;;;;;;;;;;;;;5019518;28;19983;-78
2023/01/11 14:11:44;;;;;;;;;;;;;;;;;;5002433;28;20370;-79
2023/01/11 14:14:12;;;;;;;;;;;;;;;;;;5019289;28;20313;-78
2023/01/11 14:16:38;;;;;;;;;;;;;;;;;;5019513;28;19917;-78
2023/01/11 14:19:04;;;;;;;;;;;;;;;;;;5019570;28;19910;-78
2023/01/11 14:21:30;;;;;;;;;;;;;;;;;;5001852;28;19916;-77
2023/01/11 14:23:56;;;;;;;;;;;;;;;;;;5018957;28;19913;-77
2023/01/11 14:26:22;;;;;;;;;;;;;;;;;;5017814;28;19910;-77
2023/01/11 14:28:48;;;;;;;;;;;;;;;;;;5000325;28;19944;-78
2023/01/11 14:31:14;;;;;;;;;;;;;;;;;;5018446;28;20366;-77
2023/01/11 14:33:40;;;;;;;;;;;;;;;;;;5015659;28;20029;-76
2023/01/11 14:36:06;;;;;;;;;;;;;;;;;;5007335;28;19909;-76
2023/01/11 14:38:32;;;;;;;;;;;;;;;;;;4997274;28;20065;-77
2023/01/11 14:40:58;;;;;;;;;;;;;;;;;;5009033;28;19913;-77
2023/01/11 14:43:24;;;;;;;;;;;;;;;;;;5000932;28;19913;-78
2023/01/11 14:45:50;;;;;;;;;;;;;;;;;;4985159;28;19921;-81
2023/01/11 14:48:16;;;;;;;;;;;;;;;;;;4981016;28;19910;-77
2023/01/11 14:50:42;;;;;;;;;;;;;;;;;;4999943;28;19955;-78
2023/01/11 14:53:08;;;;;;;;;;;;;;;;;;4980585;28;19910;-80
2023/01/11 14:55:34;;;;;;;;;;;;;;;;;;4981200;28;20440;-76
2023/01/11 14:58:00;;;;;;;;;;;;;;;;;;4981664;28;20049;-77
2023/01/11 15:00:26;;;;;;;;;;;;;;;;;;5003455;28;19977;-77
2023/01/11 15:02:52;;;;;;;;;;;;;;;;;;4983628;28;19920;-77
2023/01/11 15:05:18;;;;;;;;;;;;;;;;;;4984052;28;19910;-77
2023/01/11 15:07:44;;;;;;;;;;;;;;;;;;4984064;28;20027;-78
2023/01/11 15:10:09;;;;;;;;;;;;;;;;;;4982309;28;19910;-78
2023/01/11 15:12:35;;;;;;;;;;;;;;;;;;4981716;28;19914;-77
2023/01/11 15:15:01;;;;;;;;;;;;;;;;;;4980617;28;20370;-76
2023/01/11 15:20:12;;;;;;;;;;;;;;;;;;4999657;28;19921;-76
2023/01/11 15:22:37;;;;;;;;;;;;;;;;;;5015097;28;19913;-75
2023/01/11 15:25:03;;;;;;;;;;;;;;;;;;5010983;28;19925;-77
2023/01/11 15:27:29;;;;;;;;;;;;;;;;;;4983189;28;19925;-75
2023/01/11 15:29:55;;;;;;;;;;;;;;;;;;5015459;28;19910;-75
2023/01/11 15:32:21;;;;;;;;;;;;;;;;;;5014595;28;20436;-77
2023/01/11 15:34:48;;;;;;;;;;;;;;;;;;4997499;28;20267;-75
2023/01/11 15:37:13;;;;;;;;;;;;;;;;;;5015033;28;19910;-73
2023/01/11 15:39:39;;;;;;;;;;;;;;;;;;5014696;28;19916;-77
2023/01/11 15:42:05;;;;;;;;;;;;;;;;;;5014541;28;20259;-80
2023/01/11 15:44:31;;;;;;;;;;;;;;;;;;4996377;28;19909;-71
2023/01/11 15:47:00;;;;;;;;;;;;;;;;;;5013997;28;19952;-75
2023/01/11 15:49:26;;;;;;;;;;;;;;;;;;4996300;28;19916;-76
2023/01/11 15:51:51;;;;;;;;;;;;;;;;;;5014103;28;20274;-75
2023/01/11 15:54:17;;;;;;;;;;;;;;;;;;5012996;28;19910;-75
2023/01/11 15:56:43;;;;;;;;;;;;;;;;;;5012729;28;19912;-76
2023/01/11 15:59:09;;;;;;;;;;;;;;;;;;4996389;28;20366;-76
2023/01/11 16:01:35;;;;;;;;;;;;;;;;;;4995646;28;20373;-75
2023/01/11 16:04:01;;;;;;;;;;;;;;;;;;4996199;28;19921;-75
2023/01/11 16:06:27;;;;;;;;;;;;;;;;;;5013916;28;19909;-76
2023/01/11 16:08:53;;;;;;;;;;;;;;;;;;4997157;28;19984;-76
2023/01/11 16:11:19;;;;;;;;;;;;;;;;;;4995936;28;19919;-76
2023/01/11 16:13:45;;;;;;;;;;;;;;;;;;4996487;28;19909;-75
2023/01/11 16:16:11;;;;;;;;;;;;;;;;;;4995771;28;20426;-75
2023/01/11 16:18:37;;;;;;;;;;;;;;;;;;5013480;28;19944;-76
2023/01/11 16:21:03;;;;;;;;;;;;;;;;;;5014260;28;20000;-76
2023/01/11 16:23:29;;;;;;;;;;;;;;;;;;5014098;28;20328;-77
2023/01/11 16:25:55;;;;;;;;;;;;;;;;;;5013123;28;19916;-77
2023/01/11 16:28:21;;;;;;;;;;;;;;;;;;5013224;28;19950;-76
2023/01/11 16:30:47;;;;;;;;;;;;;;;;;;5012710;28;20072;-76
2023/01/11 16:33:13;;;;;;;;;;;;;;;;;;5013948;28;20357;-76
2023/01/11 16:35:39;;;;;;;;;;;;;;;;;;5014111;28;19999;-76
2023/01/11 16:38:05;;;;;;;;;;;;;;;;;;4996421;28;19968;-76
2023/01/11 16:40:31;;;;;;;;;;;;;;;;;;4995248;28;19909;-76
2023/01/11 16:42:57;;;;;;;;;;;;;;;;;;5013384;28;19914;-76
2023/01/11 16:45:22;;;;;;;;;;;;;;;;;;5012961;28;19913;-76
2023/01/11 16:47:48;;;;;;;;;;;;;;;;;;5013591;28;20429;-76
2023/01/11 16:50:14;;;;;;;;;;;;;;;;;;5012953;28;19909;-76
2023/01/11 16:52:40;;;;;;;;;;;;;;;;;;4995309;28;19932;-76
2023/01/11 16:55:06;;;;;;;;;;;;;;;;;;4995295;28;19989;-76
2023/01/11 16:57:32;;;;;;;;;;;;;;;;;;5013729;28;20000;-75
2023/01/11 16:59:58;;;;;;;;;;;;;;;;;;5013036;28;20337;-75
2023/01/11 17:02:24;;;;;;;;;;;;;;;;;;4993292;28;19914;-75
2023/01/11 17:04:50;;;;;;;;;;;;;;;;;;4976082;28;20005;-74
2023/01/11 17:07:16;;;;;;;;;;;;;;;;;;4976178;28;19917;-75
2023/01/11 17:09:41;;;;;;;;;;;;;;;;;;4993891;28;19910;-75
2023/01/11 17:12:07;;;;;;;;;;;;;;;;;;4994148;28;19917;-74
2023/01/11 17:14:33;;;;;;;;;;;;;;;;;;4975802;28;19914;-73
2023/01/11 17:16:59;;;;;;;;;;;;;;;;;;4993485;28;19925;-74
2023/01/11 17:19:25;;;;;;;;;;;;;;;;;;4975994;28;19925;-74